createdAt,value
2018-07-19T00:00:40.520Z,26.45
2018-07-19T00:01:40.489Z,26.41
2018-07-19T00:02:40.572Z,26.32
2018-07-19T00:03:40.433Z,26.32
2018-07-19T00:04:40.471Z,26.30
2018-07-19T00:05:40.390Z,26.24
2018-07-19T00:06:40.362Z,26.16
2018-07-19T00:07:40.375Z,26.03
2018-07-19T00:08:40.427Z,25.93
2018-07-19T00:09:40.275Z,25.69
2018-07-19T00:10:40.279Z,25.51
2018-07-19T00:11:40.242Z,25.44
2018-07-19T00:12:40.207Z,25.30
2018-07-19T00:13:40.298Z,25.17
2018-07-19T00:14:40.179Z,24.97
2018-07-19T00:15:40.135Z,24.49
2018-07-19T00:16:40.116Z,24.46
2018-07-19T00:17:40.173Z,24.39
2018-07-19T00:18:40.269Z,24.26
2018-07-19T00:19:40.105Z,24.26
2018-07-19T00:20:40.012Z,24.29
2018-07-19T00:21:40.009Z,24.22
2018-07-19T00:22:40.037Z,24.07
2018-07-19T00:23:40.052Z,23.94
2018-07-19T00:24:39.916Z,23.77
2018-07-19T00:25:39.880Z,23.84
2018-07-19T00:26:39.868Z,23.78
2018-07-19T00:27:39.825Z,23.66
2018-07-19T00:28:39.916Z,23.74
2018-07-19T00:29:39.780Z,23.75
2018-07-19T00:30:39.872Z,23.75
2018-07-19T00:31:39.721Z,23.94
2018-07-19T00:32:39.696Z,23.96
2018-07-19T00:33:39.670Z,23.85
2018-07-19T00:34:39.759Z,23.87
2018-07-19T00:35:39.620Z,23.82
2018-07-19T00:36:39.614Z,23.82
2018-07-19T00:37:39.622Z,23.87
2018-07-19T00:38:39.561Z,23.97
2018-07-19T00:39:39.513Z,23.85
2018-07-19T00:40:39.559Z,23.92
2018-07-19T00:41:39.541Z,23.89
2018-07-19T00:42:39.435Z,23.89
2018-07-19T00:43:39.420Z,23.89
2018-07-19T00:44:39.390Z,23.90
2018-07-19T00:45:39.455Z,23.94
2018-07-19T00:46:39.335Z,23.97
2018-07-19T00:47:39.329Z,23.85
2018-07-19T00:48:39.412Z,23.87
2018-07-19T00:49:39.256Z,23.84
2018-07-19T00:50:39.354Z,23.99
2018-07-19T00:51:39.221Z,23.93
2018-07-19T00:52:39.748Z,24.07
2018-07-19T00:53:39.163Z,24.08
2018-07-19T00:54:39.160Z,23.84
2018-07-19T00:55:39.204Z,23.81
2018-07-19T00:56:39.072Z,23.84
2018-07-19T00:57:39.058Z,23.90
2018-07-19T00:58:39.044Z,23.78
2018-07-19T00:59:39.008Z,23.94
2018-07-19T01:00:39.540Z,23.75
2018-07-19T01:01:38.937Z,23.78
2018-07-19T01:02:38.918Z,23.75
2018-07-19T01:03:38.902Z,23.84
2018-07-19T01:04:38.866Z,23.93
2018-07-19T01:05:38.943Z,23.92
2018-07-19T01:06:38.842Z,24.02
2018-07-19T01:07:38.779Z,23.89
2018-07-19T01:08:38.748Z,23.93
2018-07-19T01:09:38.734Z,23.93
2018-07-19T01:10:38.801Z,24.04
2018-07-19T01:11:38.670Z,23.93
2018-07-19T01:12:38.650Z,23.92
2018-07-19T01:13:38.609Z,23.92
2018-07-19T01:14:38.612Z,23.93
2018-07-19T01:15:38.636Z,23.96
2018-07-19T01:16:38.636Z,23.84
2018-07-19T01:17:38.546Z,23.93
2018-07-19T01:18:38.486Z,23.89
2018-07-19T01:19:38.480Z,23.94
2018-07-19T01:20:38.439Z,23.87
2018-07-19T01:21:38.404Z,23.85
2018-07-19T01:22:38.496Z,23.82
2018-07-19T01:23:38.357Z,23.87
2018-07-19T01:24:38.331Z,23.92
2018-07-19T01:25:38.293Z,23.94
2018-07-19T01:26:38.278Z,23.92
2018-07-19T01:27:38.298Z,23.85
2018-07-19T01:28:38.323Z,23.97
2018-07-19T01:29:38.183Z,23.87
2018-07-19T01:30:38.171Z,23.90
2018-07-19T01:31:38.157Z,23.94
2018-07-19T01:32:38.129Z,23.92
2018-07-19T01:33:38.184Z,23.92
2018-07-19T01:34:38.077Z,23.92
2018-07-19T01:35:38.035Z,23.89
2018-07-19T01:36:38.075Z,23.97
2018-07-19T01:37:37.992Z,23.96
2018-07-19T01:38:38.121Z,23.97
2018-07-19T01:39:37.933Z,24.00
2018-07-19T01:40:37.905Z,24.08
2018-07-19T01:41:38.414Z,24.02
2018-07-19T01:42:38.390Z,23.97
2018-07-19T01:43:37.926Z,24.08
2018-07-19T01:44:37.810Z,23.96
2018-07-19T01:45:37.773Z,23.94
2018-07-19T01:46:37.754Z,23.87
2018-07-19T01:47:37.715Z,23.92
2018-07-19T01:48:37.750Z,23.81
2018-07-19T01:49:37.909Z,23.79
2018-07-19T01:50:37.628Z,23.75
2018-07-19T01:51:38.182Z,23.81
2018-07-19T01:52:38.133Z,23.82
2018-07-19T01:53:37.548Z,23.81
2018-07-19T01:54:37.577Z,23.82
2018-07-19T01:55:37.601Z,23.82
2018-07-19T01:56:37.476Z,23.78
2018-07-19T01:57:38.130Z,23.84
2018-07-19T01:58:37.420Z,23.84
2018-07-19T01:59:37.413Z,23.81
2018-07-19T02:00:37.888Z,23.81
2018-07-19T02:01:37.401Z,23.74
2018-07-19T02:02:37.303Z,23.75
2018-07-19T02:03:37.305Z,23.71
2018-07-19T02:04:37.790Z,23.75
2018-07-19T02:05:37.245Z,23.77
2018-07-19T02:06:37.806Z,23.66
2018-07-19T02:07:37.700Z,23.67
2018-07-19T02:08:37.175Z,23.63
2018-07-19T02:09:37.134Z,23.60
2018-07-19T02:10:37.094Z,23.62
2018-07-19T02:11:37.702Z,23.75
2018-07-19T02:12:37.042Z,23.70
2018-07-19T02:13:37.548Z,23.70
2018-07-19T02:14:36.991Z,23.67
2018-07-19T02:15:36.981Z,23.64
2018-07-19T02:16:37.019Z,23.63
2018-07-19T02:17:36.936Z,23.55
2018-07-19T02:18:36.882Z,23.53
2018-07-19T02:19:37.595Z,23.48
2018-07-19T02:20:37.442Z,23.59
2018-07-19T02:21:36.952Z,23.56
2018-07-19T02:22:36.776Z,23.55
2018-07-19T02:23:36.761Z,23.64
2018-07-19T02:24:36.719Z,23.63
2018-07-19T02:25:36.715Z,23.60
2018-07-19T02:26:37.269Z,23.67
2018-07-19T02:27:36.706Z,23.67
2018-07-19T02:28:36.634Z,23.70
2018-07-19T02:29:36.669Z,23.66
2018-07-19T02:30:36.604Z,23.66
2018-07-19T02:31:36.538Z,23.60
2018-07-19T02:32:36.578Z,23.62
2018-07-19T02:33:36.483Z,23.66
2018-07-19T02:34:37.050Z,23.64
2018-07-19T02:35:36.431Z,23.70
2018-07-19T02:36:36.412Z,23.62
2018-07-19T02:37:36.443Z,23.66
2018-07-19T02:38:36.509Z,23.63
2018-07-19T02:39:36.349Z,23.60
2018-07-19T02:40:36.280Z,23.67
2018-07-19T02:41:36.339Z,23.71
2018-07-19T02:42:36.265Z,23.63
2018-07-19T02:43:36.744Z,23.62
2018-07-19T02:44:36.295Z,23.70
2018-07-19T02:45:36.696Z,23.72
2018-07-19T02:46:36.219Z,23.66
2018-07-19T02:47:36.108Z,23.67
2018-07-19T02:48:36.092Z,23.75
2018-07-19T02:49:36.696Z,23.74
2018-07-19T02:50:36.040Z,23.66
2018-07-19T02:51:36.010Z,23.67
2018-07-19T02:52:35.972Z,23.71
2018-07-19T02:53:35.940Z,23.72
2018-07-19T02:54:36.025Z,23.72
2018-07-19T02:55:35.890Z,23.71
2018-07-19T02:56:35.862Z,23.66
2018-07-19T02:57:35.859Z,23.72
2018-07-19T02:58:35.815Z,23.70
2018-07-19T02:59:36.354Z,23.77
2018-07-19T03:00:35.895Z,23.70
2018-07-19T03:01:35.741Z,23.62
2018-07-19T03:02:35.696Z,23.67
2018-07-19T03:03:35.672Z,23.63
2018-07-19T03:04:35.644Z,23.60
2018-07-19T03:05:35.722Z,23.62
2018-07-19T03:06:35.638Z,23.55
2018-07-19T03:07:35.643Z,23.57
2018-07-19T03:08:35.623Z,23.57
2018-07-19T03:09:36.039Z,23.62
2018-07-19T03:10:36.015Z,23.62
2018-07-19T03:11:36.086Z,23.62
2018-07-19T03:12:35.428Z,23.53
2018-07-19T03:13:35.390Z,23.55
2018-07-19T03:14:35.377Z,23.53
2018-07-19T03:15:36.274Z,23.60
2018-07-19T03:16:35.309Z,23.59
2018-07-19T03:17:35.464Z,23.56
2018-07-19T03:18:35.280Z,23.52
2018-07-19T03:19:35.240Z,23.57
2018-07-19T03:20:35.206Z,23.56
2018-07-19T03:21:35.187Z,23.53
2018-07-19T03:22:35.211Z,23.55
2018-07-19T03:23:35.130Z,23.47
2018-07-19T03:24:35.094Z,23.48
2018-07-19T03:25:35.146Z,23.55
2018-07-19T03:26:35.062Z,23.52
2018-07-19T03:27:35.078Z,23.52
2018-07-19T03:28:35.003Z,23.59
2018-07-19T03:29:34.962Z,23.66
2018-07-19T03:30:34.969Z,23.62
2018-07-19T03:31:34.923Z,23.57
2018-07-19T03:32:34.939Z,23.55
2018-07-19T03:33:34.984Z,23.57
2018-07-19T03:34:34.840Z,23.62
2018-07-19T03:35:34.800Z,23.62
2018-07-19T03:36:34.972Z,23.57
2018-07-19T03:37:34.744Z,23.53
2018-07-19T03:38:34.842Z,23.52
2018-07-19T03:39:34.706Z,23.41
2018-07-19T03:40:34.670Z,23.44
2018-07-19T03:41:34.634Z,23.52
2018-07-19T03:42:34.615Z,23.50
2018-07-19T03:43:34.698Z,23.50
2018-07-19T03:44:34.561Z,23.44
2018-07-19T03:45:34.539Z,23.48
2018-07-19T03:46:34.494Z,23.56
2018-07-19T03:47:34.485Z,23.57
2018-07-19T03:48:34.446Z,23.45
2018-07-19T03:49:34.542Z,23.55
2018-07-19T03:50:34.428Z,23.55
2018-07-19T03:51:34.375Z,23.53
2018-07-19T03:52:34.423Z,23.53
2018-07-19T03:53:34.331Z,23.47
2018-07-19T03:54:34.302Z,23.56
2018-07-19T03:55:34.395Z,23.55
2018-07-19T03:56:34.228Z,23.52
2018-07-19T03:57:34.745Z,23.56
2018-07-19T03:58:35.874Z,23.56
2018-07-19T03:59:35.497Z,23.47
2018-07-19T04:00:36.753Z,23.59
2018-07-19T04:01:34.095Z,23.47
2018-07-19T04:02:34.066Z,23.47
2018-07-19T04:03:34.065Z,23.52
2018-07-19T04:04:34.064Z,23.52
2018-07-19T04:05:34.007Z,23.53
2018-07-19T04:06:34.083Z,23.56
2018-07-19T04:07:33.975Z,23.59
2018-07-19T04:08:33.916Z,23.63
2018-07-19T04:09:33.895Z,23.56
2018-07-19T04:10:33.860Z,23.70
2018-07-19T04:11:33.914Z,23.66
2018-07-19T04:12:34.003Z,23.67
2018-07-19T04:13:33.790Z,23.70
2018-07-19T04:14:33.778Z,23.72
2018-07-19T04:15:33.726Z,23.75
2018-07-19T04:16:33.706Z,23.79
2018-07-19T04:17:33.768Z,23.84
2018-07-19T04:18:33.689Z,23.82
2018-07-19T04:19:33.609Z,23.92
2018-07-19T04:20:33.604Z,23.85
2018-07-19T04:21:33.560Z,23.78
2018-07-19T04:22:33.650Z,23.89
2018-07-19T04:23:33.520Z,24.02
2018-07-19T04:24:33.490Z,23.89
2018-07-19T04:25:33.449Z,24.00
2018-07-19T04:26:33.427Z,24.00
2018-07-19T04:27:33.405Z,24.09
2018-07-19T04:28:33.453Z,24.07
2018-07-19T04:29:33.341Z,24.07
2018-07-19T04:30:33.331Z,24.09
2018-07-19T04:31:33.288Z,24.11
2018-07-19T04:32:33.272Z,24.08
2018-07-19T04:33:33.231Z,24.19
2018-07-19T04:34:33.296Z,24.09
2018-07-19T04:35:33.219Z,24.22
2018-07-19T04:36:33.141Z,24.21
2018-07-19T04:37:33.116Z,24.21
2018-07-19T04:38:33.088Z,24.24
2018-07-19T04:39:33.079Z,24.24
2018-07-19T04:40:33.133Z,24.21
2018-07-19T04:41:33.012Z,24.26
2018-07-19T04:42:33.000Z,24.26
2018-07-19T04:43:32.947Z,24.21
2018-07-19T04:44:32.928Z,24.26
2018-07-19T04:45:33.013Z,24.34
2018-07-19T04:46:32.870Z,24.32
2018-07-19T04:47:32.873Z,24.21
2018-07-19T04:48:32.811Z,24.21
2018-07-19T04:49:32.804Z,24.34
2018-07-19T04:50:32.901Z,24.40
2018-07-19T04:51:32.728Z,24.30
2018-07-19T04:52:32.717Z,24.34
2018-07-19T04:53:32.708Z,24.36
2018-07-19T04:54:32.692Z,24.39
2018-07-19T04:55:32.719Z,24.37
2018-07-19T04:56:32.616Z,24.39
2018-07-19T04:57:32.578Z,24.37
2018-07-19T04:58:32.585Z,24.45
2018-07-19T04:59:32.527Z,24.34
2018-07-19T05:00:32.599Z,24.39
2018-07-19T05:01:32.461Z,24.36
2018-07-19T05:02:32.437Z,24.42
2018-07-19T05:03:32.401Z,24.36
2018-07-19T05:04:32.390Z,24.37
2018-07-19T05:05:32.360Z,24.37
2018-07-19T05:06:32.445Z,24.36
2018-07-19T05:07:32.310Z,24.39
2018-07-19T05:08:32.278Z,24.42
2018-07-19T05:09:32.243Z,24.33
2018-07-19T05:10:32.214Z,24.39
2018-07-19T05:11:32.300Z,24.36
2018-07-19T05:12:32.179Z,24.44
2018-07-19T05:13:32.141Z,24.37
2018-07-19T05:14:32.128Z,24.36
2018-07-19T05:15:32.101Z,24.37
2018-07-19T05:16:32.113Z,24.39
2018-07-19T05:17:32.135Z,24.45
2018-07-19T05:18:32.036Z,24.45
2018-07-19T05:19:31.992Z,24.48
2018-07-19T05:20:31.968Z,24.44
2018-07-19T05:21:31.923Z,24.42
2018-07-19T05:22:32.004Z,24.44
2018-07-19T05:23:31.891Z,24.39
2018-07-19T05:24:31.872Z,24.44
2018-07-19T05:25:31.841Z,24.37
2018-07-19T05:26:31.835Z,24.42
2018-07-19T05:27:31.859Z,24.40
2018-07-19T05:28:31.751Z,24.42
2018-07-19T05:29:31.715Z,24.46
2018-07-19T05:30:31.686Z,24.46
2018-07-19T05:31:31.655Z,24.49
2018-07-19T05:32:31.726Z,24.40
2018-07-19T05:33:31.666Z,24.42
2018-07-19T05:34:31.620Z,24.46
2018-07-19T05:35:31.548Z,24.48
2018-07-19T05:36:31.511Z,24.44
2018-07-19T05:37:31.680Z,24.42
2018-07-19T05:38:31.486Z,24.37
2018-07-19T05:39:31.441Z,24.40
2018-07-19T05:40:31.435Z,24.39
2018-07-19T05:41:31.406Z,24.36
2018-07-19T05:42:31.439Z,24.36
2018-07-19T05:43:31.455Z,24.45
2018-07-19T05:44:31.326Z,24.40
2018-07-19T05:45:31.272Z,24.36
2018-07-19T05:46:31.260Z,24.42
2018-07-19T05:47:31.230Z,24.42
2018-07-19T05:48:31.215Z,24.42
2018-07-19T05:49:31.263Z,24.40
2018-07-19T05:50:31.150Z,24.45
2018-07-19T05:51:31.131Z,24.42
2018-07-19T05:52:31.094Z,24.42
2018-07-19T05:53:31.079Z,24.46
2018-07-19T05:54:31.137Z,24.45
2018-07-19T05:55:31.068Z,24.42
2018-07-19T05:56:30.986Z,24.39
2018-07-19T05:57:30.952Z,24.42
2018-07-19T05:58:30.934Z,24.40
2018-07-19T05:59:31.019Z,24.46
2018-07-19T06:00:30.877Z,24.42
2018-07-19T06:01:30.835Z,24.36
2018-07-19T06:02:30.869Z,24.39
2018-07-19T06:03:30.787Z,24.37
2018-07-19T06:04:30.874Z,24.36
2018-07-19T06:05:30.755Z,24.48
2018-07-19T06:06:30.752Z,24.40
2018-07-19T06:07:30.701Z,24.37
2018-07-19T06:08:30.655Z,24.37
2018-07-19T06:09:30.830Z,24.36
2018-07-19T06:10:30.615Z,24.39
2018-07-19T06:11:30.635Z,24.36
2018-07-19T06:12:30.548Z,24.32
2018-07-19T06:13:30.526Z,24.34
2018-07-19T06:14:30.606Z,24.30
2018-07-19T06:15:30.477Z,24.32
2018-07-19T06:16:30.447Z,24.33
2018-07-19T06:17:30.421Z,24.33
2018-07-19T06:18:30.410Z,24.24
2018-07-19T06:19:30.369Z,24.22
2018-07-19T06:20:30.448Z,24.30
2018-07-19T06:21:30.324Z,24.22
2018-07-19T06:22:30.289Z,24.24
2018-07-19T06:23:30.253Z,24.22
2018-07-19T06:24:30.231Z,24.27
2018-07-19T06:25:30.297Z,24.22
2018-07-19T06:26:30.329Z,24.19
2018-07-19T06:27:30.165Z,24.19
2018-07-19T06:28:30.120Z,24.14
2018-07-19T06:29:30.104Z,24.15
2018-07-19T06:30:30.072Z,24.15
2018-07-19T06:31:30.152Z,24.15
2018-07-19T06:32:30.025Z,24.07
2018-07-19T06:33:29.993Z,24.04
2018-07-19T06:34:29.954Z,24.11
2018-07-19T06:35:29.932Z,24.04
2018-07-19T06:36:29.995Z,24.00
2018-07-19T06:37:29.953Z,23.93
2018-07-19T06:38:29.868Z,23.97
2018-07-19T06:39:29.843Z,23.94
2018-07-19T06:40:29.803Z,23.94
2018-07-19T06:41:29.899Z,23.90
2018-07-19T06:42:29.759Z,24.00
2018-07-19T06:43:29.717Z,23.96
2018-07-19T06:44:29.694Z,23.99
2018-07-19T06:45:29.690Z,23.94
2018-07-19T06:46:29.733Z,23.93
2018-07-19T06:47:29.629Z,23.93
2018-07-19T06:48:29.633Z,24.02
2018-07-19T06:49:29.648Z,23.89
2018-07-19T06:50:29.534Z,23.87
2018-07-19T06:51:29.601Z,23.89
2018-07-19T06:52:29.491Z,23.75
2018-07-19T06:53:29.439Z,23.84
2018-07-19T06:54:29.476Z,23.82
2018-07-19T06:55:29.406Z,23.85
2018-07-19T06:56:29.376Z,23.87
2018-07-19T06:57:29.461Z,23.81
2018-07-19T06:58:29.317Z,23.93
2018-07-19T06:59:29.303Z,23.99
2018-07-19T07:00:29.251Z,23.97
2018-07-19T07:01:29.226Z,23.94
2018-07-19T07:02:29.325Z,23.99
2018-07-19T07:03:29.195Z,23.89
2018-07-19T07:04:29.148Z,23.93
2018-07-19T07:05:29.130Z,23.92
2018-07-19T07:06:29.185Z,23.99
2018-07-19T07:07:29.169Z,23.84
2018-07-19T07:08:29.050Z,23.78
2018-07-19T07:09:29.020Z,23.89
2018-07-19T07:10:28.989Z,23.78
2018-07-19T07:11:28.980Z,23.79
2018-07-19T07:12:29.034Z,23.87
2018-07-19T07:13:28.910Z,23.96
2018-07-19T07:14:28.898Z,23.92
2018-07-19T07:15:28.855Z,23.82
2018-07-19T07:16:28.815Z,23.84
2018-07-19T07:17:28.894Z,23.79
2018-07-19T07:18:28.766Z,23.77
2018-07-19T07:19:28.736Z,23.72
2018-07-19T07:20:28.717Z,23.66
2018-07-19T07:21:28.705Z,23.64
2018-07-19T07:22:28.773Z,23.70
2018-07-19T07:23:28.641Z,23.66
2018-07-19T07:24:28.617Z,23.77
2018-07-19T07:25:28.593Z,23.64
2018-07-19T07:26:28.547Z,23.79
2018-07-19T07:27:28.634Z,23.66
2018-07-19T07:28:28.498Z,23.70
2018-07-19T07:29:28.467Z,23.63
2018-07-19T07:30:28.465Z,23.63
2018-07-19T07:31:28.417Z,23.71
2018-07-19T07:32:28.421Z,23.74
2018-07-19T07:33:28.482Z,23.75
2018-07-19T07:34:28.331Z,23.74
2018-07-19T07:35:28.314Z,23.74
2018-07-19T07:36:28.356Z,23.75
2018-07-19T07:37:28.256Z,23.74
2018-07-19T07:38:28.235Z,23.84
2018-07-19T07:39:28.289Z,23.84
2018-07-19T07:40:28.171Z,23.75
2018-07-19T07:41:28.166Z,23.72
2018-07-19T07:42:28.120Z,23.67
2018-07-19T07:43:28.092Z,23.63
2018-07-19T07:44:28.165Z,23.59
2018-07-19T07:45:28.085Z,23.66
2018-07-19T07:46:28.028Z,23.60
2018-07-19T07:47:27.983Z,23.53
2018-07-19T07:48:27.962Z,23.52
2018-07-19T07:49:28.030Z,23.55
2018-07-19T07:50:27.910Z,23.56
2018-07-19T07:51:27.886Z,23.59
2018-07-19T07:52:27.854Z,23.57
2018-07-19T07:53:27.840Z,23.60
2018-07-19T07:54:27.958Z,23.52
2018-07-19T07:55:27.775Z,23.56
2018-07-19T07:56:27.782Z,23.50
2018-07-19T07:57:27.714Z,23.50
2018-07-19T07:58:27.694Z,23.50
2018-07-19T07:59:27.856Z,23.48
2018-07-19T08:00:27.701Z,23.57
2018-07-19T08:01:27.612Z,23.56
2018-07-19T08:02:27.583Z,23.53
2018-07-19T08:03:27.553Z,23.55
2018-07-19T08:04:27.525Z,23.48
2018-07-19T08:05:27.704Z,23.56
2018-07-19T08:06:27.475Z,23.52
2018-07-19T08:07:27.452Z,23.56
2018-07-19T08:08:27.417Z,23.47
2018-07-19T08:09:27.394Z,23.53
2018-07-19T08:10:27.366Z,23.52
2018-07-19T08:11:27.584Z,23.47
2018-07-19T08:12:27.323Z,23.70
2018-07-19T08:13:27.279Z,23.56
2018-07-19T08:14:27.252Z,23.60
2018-07-19T08:15:27.241Z,23.57
2018-07-19T08:16:27.197Z,23.52
2018-07-19T08:17:27.384Z,23.47
2018-07-19T08:18:27.140Z,23.52
2018-07-19T08:19:27.156Z,23.52
2018-07-19T08:20:27.086Z,23.47
2018-07-19T08:21:27.066Z,23.47
2018-07-19T08:22:27.241Z,23.52
2018-07-19T08:23:27.018Z,23.50
2018-07-19T08:24:26.974Z,23.55
2018-07-19T08:25:26.948Z,23.41
2018-07-19T08:26:26.935Z,23.42
2018-07-19T08:27:27.094Z,23.44
2018-07-19T08:28:26.881Z,23.53
2018-07-19T08:29:26.842Z,23.56
2018-07-19T08:30:26.820Z,23.44
2018-07-19T08:31:26.800Z,23.42
2018-07-19T08:32:26.996Z,23.45
2018-07-19T08:33:26.734Z,23.44
2018-07-19T08:34:26.728Z,23.37
2018-07-19T08:35:26.679Z,23.41
2018-07-19T08:36:26.663Z,23.44
2018-07-19T08:37:26.641Z,23.28
2018-07-19T08:38:26.794Z,23.37
2018-07-19T08:39:26.595Z,23.29
2018-07-19T08:40:26.535Z,23.35
2018-07-19T08:41:26.608Z,23.29
2018-07-19T08:42:26.481Z,23.32
2018-07-19T08:43:26.473Z,23.32
2018-07-19T08:44:26.627Z,23.38
2018-07-19T08:45:26.415Z,23.34
2018-07-19T08:46:26.399Z,23.34
2018-07-19T08:47:26.346Z,23.28
2018-07-19T08:48:26.317Z,23.32
2018-07-19T08:49:26.316Z,23.34
2018-07-19T08:50:26.475Z,23.26
2018-07-19T08:51:26.237Z,23.32
2018-07-19T08:52:26.217Z,23.18
2018-07-19T08:53:26.178Z,23.28
2018-07-19T08:54:26.155Z,23.21
2018-07-19T08:55:26.142Z,23.21
2018-07-19T08:56:26.320Z,23.18
2018-07-19T08:57:26.072Z,23.15
2018-07-19T08:58:26.068Z,23.22
2018-07-19T08:59:26.021Z,23.18
2018-07-19T09:00:25.999Z,23.12
2018-07-19T09:01:26.171Z,23.14
2018-07-19T09:02:25.948Z,23.14
2018-07-19T09:03:25.909Z,23.16
2018-07-19T09:04:25.871Z,23.15
2018-07-19T09:05:25.858Z,23.16
2018-07-19T09:06:26.037Z,23.15
2018-07-19T09:07:25.825Z,23.15
2018-07-19T09:08:25.826Z,23.15
2018-07-19T09:09:25.791Z,23.10
2018-07-19T09:10:25.722Z,23.09
2018-07-19T09:11:25.689Z,23.06
2018-07-19T09:12:25.884Z,23.10
2018-07-19T09:13:25.640Z,23.14
2018-07-19T09:14:25.631Z,23.09
2018-07-19T09:15:25.575Z,23.07
2018-07-19T09:16:25.549Z,23.10
2018-07-19T09:17:25.574Z,23.09
2018-07-19T09:18:25.705Z,23.16
2018-07-19T09:19:25.554Z,23.15
2018-07-19T09:20:25.461Z,23.10
2018-07-19T09:21:25.417Z,23.06
2018-07-19T09:22:25.392Z,23.16
2018-07-19T09:23:25.372Z,22.99
2018-07-19T09:24:25.526Z,23.01
2018-07-19T09:25:25.307Z,23.04
2018-07-19T09:26:25.303Z,23.04
2018-07-19T09:27:25.249Z,23.06
2018-07-19T09:28:25.223Z,23.04
2018-07-19T09:29:25.204Z,23.06
2018-07-19T09:30:25.375Z,23.04
2018-07-19T09:31:25.191Z,23.03
2018-07-19T09:32:25.125Z,22.97
2018-07-19T09:33:25.085Z,23.04
2018-07-19T09:34:25.070Z,23.09
2018-07-19T09:35:25.163Z,23.06
2018-07-19T09:36:25.032Z,23.10
2018-07-19T09:37:25.003Z,23.06
2018-07-19T09:38:25.021Z,23.07
2018-07-19T09:39:24.919Z,23.01
2018-07-19T09:40:25.107Z,22.99
2018-07-19T09:41:24.862Z,22.99
2018-07-19T09:42:24.856Z,23.03
2018-07-19T09:43:24.823Z,23.01
2018-07-19T09:44:24.790Z,22.96
2018-07-19T09:45:24.756Z,22.96
2018-07-19T09:46:24.922Z,23.04
2018-07-19T09:47:24.710Z,22.97
2018-07-19T09:48:24.688Z,23.01
2018-07-19T09:49:24.652Z,23.04
2018-07-19T09:50:24.614Z,23.07
2018-07-19T09:51:24.592Z,23.00
2018-07-19T09:52:24.762Z,23.14
2018-07-19T09:53:24.533Z,23.00
2018-07-19T09:54:24.509Z,23.06
2018-07-19T09:55:24.520Z,23.10
2018-07-19T09:56:24.471Z,23.04
2018-07-19T09:57:24.446Z,23.15
2018-07-19T09:58:24.600Z,23.07
2018-07-19T09:59:24.380Z,23.04
2018-07-19T10:00:24.357Z,23.06
2018-07-19T10:01:24.362Z,23.09
2018-07-19T10:02:24.292Z,23.04
2018-07-19T10:03:24.256Z,23.10
2018-07-19T10:04:24.426Z,23.03
2018-07-19T10:05:24.216Z,23.03
2018-07-19T10:06:24.203Z,23.01
2018-07-19T10:07:24.154Z,23.04
2018-07-19T10:08:24.132Z,23.16
2018-07-19T10:09:24.186Z,23.03
2018-07-19T10:10:24.084Z,23.06
2018-07-19T10:11:24.045Z,23.04
2018-07-19T10:12:24.031Z,23.01
2018-07-19T10:13:24.010Z,23.04
2018-07-19T10:14:24.204Z,22.97
2018-07-19T10:15:23.960Z,23.04
2018-07-19T10:16:23.930Z,23.06
2018-07-19T10:17:23.925Z,23.06
2018-07-19T10:18:23.847Z,23.04
2018-07-19T10:19:23.859Z,23.00
2018-07-19T10:20:24.004Z,23.00
2018-07-19T10:21:23.785Z,23.01
2018-07-19T10:22:23.757Z,23.00
2018-07-19T10:23:23.719Z,23.04
2018-07-19T10:24:23.819Z,23.00
2018-07-19T10:25:23.717Z,23.03
2018-07-19T10:26:23.821Z,23.04
2018-07-19T10:27:23.596Z,22.96
2018-07-19T10:28:23.579Z,23.01
2018-07-19T10:29:23.601Z,22.92
2018-07-19T10:30:23.527Z,23.04
2018-07-19T10:31:23.715Z,22.99
2018-07-19T10:32:23.606Z,23.04
2018-07-19T10:33:23.434Z,22.99
2018-07-19T10:34:23.471Z,23.04
2018-07-19T10:35:23.393Z,22.97
2018-07-19T10:36:23.343Z,23.01
2018-07-19T10:37:23.512Z,23.06
2018-07-19T10:38:23.362Z,23.01
2018-07-19T10:39:23.268Z,23.07
2018-07-19T10:40:23.337Z,23.03
2018-07-19T10:41:23.206Z,22.99
2018-07-19T10:42:23.194Z,22.92
2018-07-19T10:43:23.379Z,22.91
2018-07-19T10:44:23.176Z,23.00
2018-07-19T10:45:23.121Z,23.01
2018-07-19T10:46:23.066Z,22.92
2018-07-19T10:47:23.071Z,22.88
2018-07-19T10:48:23.234Z,22.92
2018-07-19T10:49:23.004Z,22.97
2018-07-19T10:50:22.963Z,22.99
2018-07-19T10:51:22.933Z,22.99
2018-07-19T10:52:22.924Z,22.89
2018-07-19T10:53:22.894Z,22.89
2018-07-19T10:54:23.049Z,22.92
2018-07-19T10:55:22.850Z,22.91
2018-07-19T10:56:22.795Z,22.99
2018-07-19T10:57:22.820Z,22.96
2018-07-19T10:58:22.755Z,22.99
2018-07-19T10:59:22.914Z,22.99
2018-07-19T11:00:22.704Z,22.99
2018-07-19T11:01:22.665Z,22.99
2018-07-19T11:02:22.641Z,23.01
2018-07-19T11:03:22.600Z,22.96
2018-07-19T11:04:22.922Z,23.04
2018-07-19T11:05:22.558Z,23.03
2018-07-19T11:06:22.609Z,23.03
2018-07-19T11:07:22.492Z,23.10
2018-07-19T11:08:22.478Z,23.09
2018-07-19T11:09:22.451Z,23.15
2018-07-19T11:10:22.578Z,23.19
2018-07-19T11:11:22.392Z,23.16
2018-07-19T11:12:22.361Z,23.21
2018-07-19T11:13:22.355Z,23.14
2018-07-19T11:14:22.316Z,23.32
2018-07-19T11:15:22.274Z,23.21
2018-07-19T11:16:22.447Z,23.24
2018-07-19T11:17:22.239Z,23.25
2018-07-19T11:18:22.210Z,23.24
2018-07-19T11:19:22.179Z,23.29
2018-07-19T11:20:22.206Z,23.26
2018-07-19T11:21:22.338Z,23.38
2018-07-19T11:22:22.084Z,23.32
2018-07-19T11:23:22.063Z,23.21
2018-07-19T11:24:22.041Z,23.19
2018-07-19T11:25:22.002Z,23.10
2018-07-19T11:26:22.022Z,23.15
2018-07-19T11:27:22.147Z,23.15
2018-07-19T11:28:21.936Z,23.14
2018-07-19T11:29:21.904Z,23.10
2018-07-19T11:30:21.870Z,23.04
2018-07-19T11:31:21.836Z,23.07
2018-07-19T11:32:22.010Z,23.12
2018-07-19T11:33:21.809Z,23.10
2018-07-19T11:34:21.761Z,23.15
2018-07-19T11:35:21.778Z,23.16
2018-07-19T11:36:21.687Z,23.14
2018-07-19T11:37:21.871Z,23.16
2018-07-19T11:38:21.733Z,23.12
2018-07-19T11:39:21.632Z,23.14
2018-07-19T11:40:21.586Z,23.15
2018-07-19T11:41:21.549Z,23.19
2018-07-19T11:42:21.712Z,23.16
2018-07-19T11:43:21.533Z,23.14
2018-07-19T11:44:21.495Z,23.25
2018-07-19T11:45:21.456Z,23.34
2018-07-19T11:46:21.427Z,23.32
2018-07-19T11:47:21.396Z,23.32
2018-07-19T11:48:21.577Z,23.35
2018-07-19T11:49:21.332Z,23.47
2018-07-19T11:50:21.319Z,23.41
2018-07-19T11:51:21.294Z,23.42
2018-07-19T11:52:21.251Z,23.45
2018-07-19T11:53:21.234Z,23.44
2018-07-19T11:54:21.393Z,23.62
2018-07-19T11:55:21.174Z,23.45
2018-07-19T11:56:21.150Z,23.56
2018-07-19T11:57:22.971Z,23.44
2018-07-19T11:58:22.887Z,23.56
2018-07-19T11:59:24.197Z,23.48
2018-07-19T12:00:23.044Z,23.57
2018-07-19T12:01:22.521Z,23.47
2018-07-19T12:02:23.231Z,23.48
2018-07-19T12:03:22.589Z,23.48
2018-07-19T12:04:21.851Z,23.55
2018-07-19T12:05:21.152Z,23.63
2018-07-19T12:06:20.923Z,23.63
2018-07-19T12:07:20.856Z,23.62
2018-07-19T12:08:20.823Z,23.67
2018-07-19T12:09:20.792Z,23.72
2018-07-19T12:10:20.973Z,23.70
2018-07-19T12:11:20.737Z,23.74
2018-07-19T12:12:20.723Z,23.75
2018-07-19T12:13:20.671Z,23.84
2018-07-19T12:14:20.689Z,23.87
2018-07-19T12:15:20.823Z,23.79
2018-07-19T12:16:20.605Z,23.77
2018-07-19T12:17:20.556Z,23.89
2018-07-19T12:18:20.554Z,23.92
2018-07-19T12:19:20.562Z,23.93
2018-07-19T12:20:20.704Z,23.96
2018-07-19T12:21:20.461Z,23.92
2018-07-19T12:22:20.476Z,23.94
2018-07-19T12:23:20.434Z,23.89
2018-07-19T12:24:20.391Z,23.94
2018-07-19T12:25:20.345Z,23.90
2018-07-19T12:26:20.530Z,23.97
2018-07-19T12:27:20.307Z,24.03
2018-07-19T12:28:20.292Z,24.04
2018-07-19T12:29:20.239Z,24.00
2018-07-19T12:30:20.217Z,23.94
2018-07-19T12:31:20.252Z,24.08
2018-07-19T12:32:20.378Z,24.09
2018-07-19T12:33:20.129Z,24.14
2018-07-19T12:34:20.110Z,24.14
2018-07-19T12:35:20.073Z,24.22
2018-07-19T12:36:20.059Z,24.29
2018-07-19T12:37:20.095Z,24.21
2018-07-19T12:38:20.238Z,24.36
2018-07-19T12:39:19.964Z,24.37
2018-07-19T12:40:19.960Z,24.40
2018-07-19T12:41:19.925Z,24.49
2018-07-19T12:42:19.917Z,24.49
2018-07-19T12:43:20.069Z,24.46
2018-07-19T12:44:19.834Z,24.48
2018-07-19T12:45:19.798Z,24.46
2018-07-19T12:46:19.784Z,24.54
2018-07-19T12:47:19.781Z,24.63
2018-07-19T12:48:19.931Z,24.63
2018-07-19T12:49:19.684Z,24.69
2018-07-19T12:50:19.671Z,24.67
2018-07-19T12:51:19.659Z,24.74
2018-07-19T12:52:19.612Z,24.85